createdAt,value
2023-05-03T00:00:01.927Z,52.19
2023-05-03T00:02:40.437Z,52.54
2023-05-03T00:05:13.607Z,52.29
2023-05-03T00:07:45.091Z,52.87
2023-05-03T00:10:19.564Z,53.11
2023-05-03T00:12:49.750Z,53.10
2023-05-03T00:15:17.116Z,52.87
2023-05-03T00:17:44.258Z,53.01
2023-05-03T00:20:12.220Z,53.26
2023-05-03T00:22:39.197Z,53.08
2023-05-03T00:25:07.748Z,53.17
2023-05-03T00:27:34.742Z,53.38
2023-05-03T00:30:03.315Z,53.17
2023-05-03T00:32:32.504Z,53.33
2023-05-03T00:34:59.718Z,52.95
2023-05-03T00:37:27.485Z,53.15
2023-05-03T00:39:55.259Z,53.38
2023-05-03T00:42:24.081Z,52.99
2023-05-03T00:44:51.702Z,53.00
2023-05-03T00:47:20.006Z,53.38
2023-05-03T00:49:47.076Z,53.33
2023-05-03T00:52:14.420Z,53.29
2023-05-03T00:54:44.483Z,53.39
2023-05-03T00:57:30.851Z,53.37
2023-05-03T00:59:59.265Z,53.69
2023-05-03T01:02:28.334Z,53.62
2023-05-03T01:04:55.926Z,53.40
2023-05-03T01:07:40.889Z,53.60
2023-05-03T01:10:34.558Z,53.71
2023-05-03T01:13:11.178Z,53.88
2023-05-03T01:16:00.852Z,53.76
2023-05-03T01:18:34.286Z,54.00
2023-05-03T01:21:05.988Z,53.97
2023-05-03T01:24:08.593Z,54.28
2023-05-03T01:26:35.610Z,54.43
2023-05-03T01:29:02.759Z,54.29
2023-05-03T01:31:49.124Z,54.36
2023-05-03T01:34:42.184Z,54.26
2023-05-03T01:37:10.630Z,54.29
2023-05-03T01:40:10.040Z,54.22
2023-05-03T01:42:37.926Z,54.28
2023-05-03T01:45:05.575Z,54.34
2023-05-03T01:47:33.075Z,54.08
2023-05-03T01:50:00.549Z,54.11
2023-05-03T01:52:27.976Z,53.81
2023-05-03T01:54:55.060Z,53.89
2023-05-03T01:57:22.934Z,53.69
2023-05-03T01:59:49.983Z,53.74
2023-05-03T02:02:17.264Z,53.79
2023-05-03T02:04:47.591Z,53.71
2023-05-03T02:07:14.646Z,53.87
2023-05-03T02:09:41.828Z,53.70
2023-05-03T02:12:12.879Z,53.71
2023-05-03T02:14:39.826Z,53.86
2023-05-03T02:17:08.679Z,53.76
2023-05-03T02:19:35.916Z,53.95
2023-05-03T02:22:07.017Z,53.83
2023-05-03T02:24:36.406Z,53.82
2023-05-03T02:27:07.049Z,53.75
2023-05-03T02:29:35.109Z,53.72
2023-05-03T02:32:10.352Z,53.88
2023-05-03T02:34:39.396Z,53.48
2023-05-03T02:37:10.934Z,53.74
2023-05-03T02:39:41.312Z,53.59
2023-05-03T02:42:09.580Z,53.54
2023-05-03T02:44:39.734Z,53.62
2023-05-03T02:47:09.683Z,53.72
2023-05-03T02:49:47.284Z,53.82
2023-05-03T02:52:14.624Z,53.80
2023-05-03T02:54:43.822Z,53.66
2023-05-03T02:57:14.312Z,53.83
2023-05-03T02:59:43.846Z,53.88
2023-05-03T03:02:10.964Z,53.76
2023-05-03T03:04:38.294Z,53.48
2023-05-03T03:07:06.219Z,53.17
2023-05-03T03:09:33.840Z,53.10
2023-05-03T03:12:03.626Z,52.91
2023-05-03T03:14:33.647Z,52.65
2023-05-03T03:17:03.481Z,52.74
2023-05-03T03:19:31.952Z,52.89
2023-05-03T03:22:01.878Z,52.82
2023-05-03T03:24:30.367Z,52.47
2023-05-03T03:26:58.222Z,52.26
2023-05-03T03:29:29.162Z,52.09
2023-05-03T03:31:56.549Z,51.83
2023-05-03T03:34:23.910Z,51.81
2023-05-03T03:36:51.038Z,51.87
2023-05-03T03:39:18.637Z,51.54
2023-05-03T03:41:47.315Z,51.41
2023-05-03T03:44:14.404Z,51.38
2023-05-03T03:46:41.514Z,51.66
2023-05-03T03:49:08.874Z,51.10
2023-05-03T03:51:36.788Z,51.29
2023-05-03T03:54:04.900Z,51.61
2023-05-03T03:56:38.255Z,51.72
2023-05-03T03:59:08.754Z,51.62
2023-05-03T04:01:35.895Z,51.12
2023-05-03T04:04:04.912Z,51.66
2023-05-03T04:06:33.261Z,52.24
2023-05-03T04:09:04.810Z,51.74
2023-05-03T04:11:35.142Z,52.07
2023-05-03T04:14:10.991Z,52.09
2023-05-03T04:16:38.132Z,52.18
2023-05-03T04:19:06.952Z,51.84
2023-05-03T04:21:40.407Z,51.93
2023-05-03T04:24:08.098Z,51.93
2023-05-03T04:26:35.407Z,52.42
2023-05-03T04:29:20.158Z,52.51
2023-05-03T04:31:47.712Z,52.92
2023-05-03T04:34:19.148Z,53.97
2023-05-03T04:36:49.263Z,54.87
2023-05-03T04:39:17.078Z,55.44
2023-05-03T04:41:46.932Z,55.74
2023-05-03T04:44:14.495Z,56.32
2023-05-03T04:46:50.256Z,56.93
2023-05-03T04:49:18.237Z,57.67
2023-05-03T04:51:45.281Z,57.81
2023-05-03T04:54:13.015Z,58.99
2023-05-03T04:56:43.685Z,60.35
2023-05-03T04:59:16.120Z,60.25
2023-05-03T05:01:43.533Z,60.31
2023-05-03T05:04:11.340Z,60.20
2023-05-03T05:06:43.602Z,60.57
2023-05-03T05:09:23.446Z,59.69
2023-05-03T05:12:02.439Z,59.69
2023-05-03T05:14:35.217Z,59.71
2023-05-03T05:17:04.804Z,59.79
2023-05-03T05:19:31.982Z,59.04
2023-05-03T05:21:58.938Z,59.33
2023-05-03T05:24:38.369Z,59.20
2023-05-03T05:27:07.110Z,58.81
2023-05-03T05:29:35.123Z,58.48
2023-05-03T05:32:04.334Z,57.43
2023-05-03T05:34:42.177Z,57.27
2023-05-03T05:37:11.677Z,57.48
2023-05-03T05:39:41.708Z,56.67
2023-05-03T05:42:08.906Z,56.40
2023-05-03T05:44:35.957Z,55.98
2023-05-03T05:47:09.852Z,54.71
2023-05-03T05:49:37.229Z,55.08
2023-05-03T05:52:05.691Z,54.42
2023-05-03T05:54:32.796Z,54.54
2023-05-03T05:57:24.446Z,54.48
2023-05-03T05:59:54.207Z,54.17
2023-05-03T06:02:24.951Z,52.93
2023-05-03T06:04:52.933Z,53.87
2023-05-03T06:07:19.912Z,52.90
2023-05-03T06:09:46.859Z,52.63
2023-05-03T06:12:14.228Z,51.63
2023-05-03T06:14:59.076Z,51.82
2023-05-03T06:17:32.253Z,51.34
2023-05-03T06:20:06.582Z,50.71
2023-05-03T06:22:33.844Z,50.07
2023-05-03T06:25:01.404Z,49.84
2023-05-03T06:27:31.338Z,49.44
2023-05-03T06:29:58.496Z,49.94
2023-05-03T06:32:36.504Z,48.52
2023-05-03T06:35:04.216Z,48.32
2023-05-03T06:37:50.808Z,48.80
2023-05-03T06:40:18.214Z,48.50
2023-05-03T06:42:45.191Z,48.79
2023-05-03T06:45:33.585Z,47.48
2023-05-03T06:48:00.699Z,47.15
2023-05-03T06:50:27.870Z,46.12
2023-05-03T06:52:55.226Z,46.43
2023-05-03T06:55:22.302Z,46.02
2023-05-03T06:57:49.552Z,45.85
2023-05-03T07:00:19.677Z,46.75
2023-05-03T07:02:46.827Z,46.70
2023-05-03T07:05:13.870Z,46.67
2023-05-03T07:07:53.201Z,47.21
2023-05-03T07:10:20.349Z,48.27
2023-05-03T07:12:48.347Z,48.36
2023-05-03T07:15:16.577Z,48.36
2023-05-03T07:17:43.966Z,48.15
2023-05-03T07:20:11.772Z,47.89
2023-05-03T07:22:38.815Z,46.81
2023-05-03T07:25:09.254Z,46.40
2023-05-03T07:27:36.514Z,47.26
2023-05-03T07:30:05.119Z,47.11
2023-05-03T07:32:33.102Z,47.18
2023-05-03T07:35:01.354Z,46.72
2023-05-03T07:37:31.675Z,46.93
2023-05-03T07:39:58.949Z,47.49
2023-05-03T07:42:35.109Z,47.31
2023-05-03T07:45:02.971Z,46.61
2023-05-03T07:47:33.288Z,46.83
2023-05-03T07:50:02.018Z,46.69
2023-05-03T07:52:31.165Z,46.57
2023-05-03T07:54:58.346Z,46.18
2023-05-03T07:57:25.450Z,46.04
2023-05-03T07:59:52.636Z,45.65
2023-05-03T08:02:20.095Z,45.50
2023-05-03T08:04:47.899Z,46.15
2023-05-03T08:07:15.026Z,45.96
2023-05-03T08:09:42.512Z,45.86
2023-05-03T08:12:10.767Z,46.27
2023-05-03T08:14:37.801Z,46.94
2023-05-03T08:17:07.054Z,47.10
2023-05-03T08:19:42.996Z,47.86
2023-05-03T08:22:12.602Z,48.18
2023-05-03T08:24:39.838Z,48.72
2023-05-03T08:27:06.945Z,48.40
2023-05-03T08:29:37.259Z,49.02
2023-05-03T08:32:04.977Z,50.24
2023-05-03T08:34:32.919Z,52.10
2023-05-03T08:37:19.094Z,54.44
2023-05-03T08:39:47.653Z,54.37
2023-05-03T08:42:34.970Z,55.15
2023-05-03T08:45:03.873Z,54.50
2023-05-03T08:47:36.208Z,53.64
2023-05-03T08:50:05.111Z,54.05
2023-05-03T08:52:34.620Z,55.42
2023-05-03T08:55:01.709Z,54.96
2023-05-03T08:57:49.813Z,56.02
2023-05-03T09:00:19.823Z,57.21
2023-05-03T09:02:47.351Z,58.06
2023-05-03T09:05:14.354Z,58.36
2023-05-03T09:08:02.906Z,59.38
2023-05-03T09:10:33.359Z,60.03
2023-05-03T09:13:01.967Z,60.76
2023-05-03T09:15:30.659Z,62.07
2023-05-03T09:18:16.698Z,62.83
2023-05-03T09:20:53.024Z,64.69
2023-05-03T09:23:27.025Z,65.92
2023-05-03T09:25:55.079Z,66.41
2023-05-03T09:28:24.034Z,66.95
2023-05-03T09:31:04.467Z,66.81
2023-05-03T09:33:31.586Z,67.23
2023-05-03T09:36:00.948Z,66.80
2023-05-03T09:38:30.628Z,65.71
2023-05-03T09:40:58.064Z,66.33
2023-05-03T09:43:26.151Z,67.23
2023-05-03T09:45:55.167Z,67.53
2023-05-03T09:48:26.350Z,66.88
2023-05-03T09:50:55.192Z,66.54
2023-05-03T09:53:22.946Z,66.03
2023-05-03T09:55:51.125Z,65.27
2023-05-03T09:58:21.951Z,63.61
2023-05-03T10:00:52.256Z,60.43
2023-05-03T10:03:50.639Z,59.16
2023-05-03T10:06:37.988Z,60.26
2023-05-03T10:09:06.219Z,61.49
2023-05-03T10:11:36.434Z,61.14
2023-05-03T10:14:05.329Z,60.67
2023-05-03T10:16:39.495Z,61.35
2023-05-03T10:19:14.975Z,60.96
2023-05-03T10:21:51.919Z,60.87
2023-05-03T10:24:19.303Z,60.53
2023-05-03T10:26:47.756Z,60.80
2023-05-03T10:29:34.594Z,61.05
2023-05-03T10:32:33.216Z,59.46
2023-05-03T10:35:04.246Z,59.56
2023-05-03T10:37:35.311Z,60.03
2023-05-03T10:40:10.285Z,60.68
2023-05-03T10:42:45.237Z,60.70
2023-05-03T10:45:26.845Z,59.22
2023-05-03T10:48:13.168Z,57.50
2023-05-03T10:50:40.635Z,57.43
2023-05-03T10:53:08.274Z,57.89
2023-05-03T10:55:36.001Z,57.73
2023-05-03T10:58:04.064Z,56.29
2023-05-03T11:00:33.832Z,55.34
2023-05-03T11:03:19.033Z,53.96
2023-05-03T11:05:48.197Z,50.36
2023-05-03T11:08:19.090Z,45.42
2023-05-03T11:10:51.116Z,44.12
2023-05-03T11:13:18.364Z,41.80
2023-05-03T11:15:47.635Z,42.78
2023-05-03T11:18:16.550Z,41.30
2023-05-03T11:20:43.538Z,42.03
2023-05-03T11:23:12.505Z,44.68
2023-05-03T11:25:48.433Z,43.61
2023-05-03T11:28:16.420Z,41.80
2023-05-03T11:30:43.378Z,39.52
2023-05-03T11:33:11.026Z,41.49
2023-05-03T11:35:38.425Z,42.74
2023-05-03T11:38:05.931Z,43.73
2023-05-03T11:40:33.002Z,44.92
2023-05-03T11:43:00.315Z,44.21
2023-05-03T11:45:32.875Z,45.13
2023-05-03T11:48:00.268Z,44.53
2023-05-03T11:50:43.639Z,43.42
2023-05-03T11:53:13.233Z,40.30
2023-05-03T11:55:46.634Z,38.98
2023-05-03T11:58:27.970Z,38.29
2023-05-03T12:00:57.235Z,39.65
2023-05-03T12:03:30.598Z,37.51
2023-05-03T12:06:02.556Z,36.62
2023-05-03T12:08:36.303Z,36.99
2023-05-03T12:11:10.675Z,36.27
2023-05-03T12:13:40.124Z,38.18
2023-05-03T12:16:13.802Z,39.15
2023-05-03T12:19:03.119Z,42.21
2023-05-03T12:22:03.038Z,43.64
2023-05-03T12:24:39.423Z,42.92
2023-05-03T12:27:08.551Z,42.69
2023-05-03T12:29:35.960Z,43.81
2023-05-03T12:32:04.377Z,44.16
2023-05-03T12:34:34.814Z,44.04
2023-05-03T12:37:04.683Z,43.78
2023-05-03T12:39:33.384Z,42.68
2023-05-03T12:44:35.486Z,45.84
2023-05-03T12:47:04.278Z,46.52
2023-05-03T12:49:37.996Z,46.44
2023-05-03T12:54:42.193Z,42.21
2023-05-03T12:57:15.406Z,41.47
2023-05-03T12:59:47.665Z,44.13
2023-05-03T13:03:19.821Z,46.78
2023-05-03T13:05:13.371Z,48.02
2023-05-03T13:07:55.593Z,48.82
2023-05-03T13:10:27.332Z,49.24
2023-05-03T13:12:54.963Z,49.36
2023-05-03T13:15:25.112Z,48.18
2023-05-03T13:17:52.635Z,42.15
2023-05-03T13:20:20.377Z,43.90
2023-05-03T13:22:49.009Z,46.24
2023-05-03T13:25:16.166Z,47.36
2023-05-03T13:27:44.147Z,48.79
2023-05-03T13:30:11.846Z,49.39
2023-05-03T13:32:39.096Z,49.60
2023-05-03T13:35:06.991Z,49.98
2023-05-03T13:37:36.906Z,47.49
2023-05-03T13:40:04.837Z,47.52
2023-05-03T13:42:34.546Z,48.41
2023-05-03T13:45:01.717Z,49.46
2023-05-03T13:47:52.952Z,50.42
2023-05-03T13:50:20.187Z,51.36
2023-05-03T13:52:47.187Z,51.88
2023-05-03T13:55:14.248Z,52.49
2023-05-03T13:57:41.194Z,52.95
2023-05-03T14:00:11.879Z,52.90
2023-05-03T14:02:38.974Z,53.01
2023-05-03T14:05:15.978Z,53.66
2023-05-03T14:07:45.872Z,53.87
2023-05-03T14:10:13.872Z,54.10
2023-05-03T14:12:41.117Z,54.39
2023-05-03T14:15:09.053Z,54.85
2023-05-03T14:17:36.333Z,54.89
2023-05-03T14:20:07.599Z,54.38
2023-05-03T14:22:37.845Z,54.50
2023-05-03T14:25:08.240Z,54.77
2023-05-03T14:27:37.182Z,55.11
2023-05-03T14:30:06.519Z,55.21
2023-05-03T14:32:34.006Z,55.09
2023-05-03T14:35:01.619Z,54.78
2023-05-03T14:37:34.380Z,54.14
2023-05-03T14:40:01.706Z,53.52
2023-05-03T14:42:32.194Z,52.25
2023-05-03T14:45:00.265Z,51.78
2023-05-03T14:47:27.332Z,52.34
2023-05-03T14:49:54.296Z,53.36
2023-05-03T14:52:21.460Z,54.25
2023-05-03T14:54:48.549Z,54.81
2023-05-03T14:57:15.778Z,55.06
2023-05-03T14:59:42.804Z,55.78
2023-05-03T15:02:11.324Z,56.13
2023-05-03T15:04:47.121Z,56.26
2023-05-03T15:07:15.618Z,56.47
2023-05-03T15:09:42.604Z,56.94
2023-05-03T15:12:09.653Z,57.59
2023-05-03T15:14:36.853Z,57.82
2023-05-03T15:17:04.132Z,58.26
2023-05-03T15:19:33.921Z,58.85
2023-05-03T15:22:01.157Z,58.98
2023-05-03T15:24:28.154Z,59.25
2023-05-03T15:26:55.144Z,59.45
2023-05-03T15:29:24.468Z,59.58
2023-05-03T15:31:51.614Z,59.80
2023-05-03T15:34:18.758Z,60.32
2023-05-03T15:36:46.194Z,60.58
2023-05-03T15:39:15.704Z,60.80
2023-05-03T15:41:42.810Z,61.46
2023-05-03T15:44:09.999Z,61.13
2023-05-03T15:46:38.287Z,61.56
2023-05-03T15:49:06.575Z,61.72
2023-05-03T15:51:33.668Z,61.90
2023-05-03T15:54:19.264Z,62.36
2023-05-03T15:56:47.396Z,62.84
2023-05-03T15:59:32.852Z,63.51
2023-05-03T16:02:00.246Z,64.94
2023-05-03T16:04:27.753Z,66.06
2023-05-03T16:06:54.739Z,67.18
2023-05-03T16:09:21.798Z,68.41
2023-05-03T16:12:07.488Z,69.40
2023-05-03T16:14:35.329Z,70.54
2023-05-03T16:17:02.539Z,71.29
2023-05-03T16:19:29.999Z,71.33
2023-05-03T16:22:17.144Z,71.34
2023-05-03T16:24:44.188Z,71.33
2023-05-03T16:27:11.375Z,71.02
2023-05-03T16:29:57.038Z,70.46
2023-05-03T16:33:02.550Z,70.36
2023-05-03T16:35:29.688Z,70.26
2023-05-03T16:41:05.403Z,69.99
2023-05-03T16:43:51.152Z,71.01
2023-05-03T16:46:22.851Z,71.26
2023-05-03T16:49:27.989Z,72.01
2023-05-03T16:51:56.761Z,72.72
2023-05-03T16:54:26.992Z,73.38
2023-05-03T16:56:54.630Z,74.54
2023-05-03T16:59:21.667Z,75.88
2023-05-03T17:02:11.164Z,77.11
2023-05-03T17:05:22.948Z,78.06
2023-05-03T17:07:49.925Z,78.96
2023-05-03T17:10:17.082Z,79.80
2023-05-03T17:12:48.600Z,80.53
2023-05-03T17:15:16.933Z,81.14
2023-05-03T17:18:23.150Z,81.47
2023-05-03T17:20:53.776Z,81.53
2023-05-03T17:23:20.881Z,81.94
2023-05-03T17:25:48.511Z,81.98
2023-05-03T17:28:16.542Z,81.91
2023-05-03T17:30:44.722Z,82.26
2023-05-03T17:33:15.558Z,82.44
2023-05-03T17:35:42.927Z,82.84
2023-05-03T17:38:11.140Z,83.47
2023-05-03T17:40:41.216Z,83.55
2023-05-03T17:43:08.203Z,83.82
2023-05-03T17:45:35.481Z,84.05
2023-05-03T17:48:04.718Z,84.32
2023-05-03T17:50:31.702Z,84.49
2023-05-03T17:53:00.191Z,84.42
2023-05-03T17:55:27.688Z,84.10
2023-05-03T17:57:54.864Z,84.37
2023-05-03T18:00:22.724Z,85.09
2023-05-03T18:02:49.850Z,84.77
2023-05-03T18:05:17.146Z,84.94
2023-05-03T18:08:03.735Z,85.12
2023-05-03T18:10:31.488Z,85.19
2023-05-03T18:13:02.376Z,85.43
2023-05-03T18:15:32.468Z,85.68
2023-05-03T18:18:03.784Z,85.32
2023-05-03T18:20:31.161Z,85.08
2023-05-03T18:22:58.165Z,85.47
2023-05-03T18:25:25.246Z,85.78
2023-05-03T18:27:52.774Z,85.89
2023-05-03T18:30:20.004Z,85.02
2023-05-03T18:33:05.432Z,84.23
2023-05-03T18:35:33.462Z,84.07
2023-05-03T18:38:02.463Z,83.02
2023-05-03T18:40:30.490Z,82.50
2023-05-03T18:42:57.514Z,82.11
2023-05-03T18:45:26.728Z,81.83
2023-05-03T18:47:53.799Z,82.04
2023-05-03T18:50:21.045Z,81.90
2023-05-03T18:53:06.836Z,81.40
2023-05-03T18:55:33.949Z,80.25
2023-05-03T18:58:01.625Z,79.43
2023-05-03T19:00:31.687Z,77.07
2023-05-03T19:02:58.745Z,75.47
2023-05-03T19:05:25.722Z,74.40
2023-05-03T19:07:52.937Z,73.93
2023-05-03T19:10:21.171Z,73.16
2023-05-03T19:13:07.642Z,73.15
2023-05-03T19:15:34.827Z,73.42
2023-05-03T19:18:05.001Z,74.09
2023-05-03T19:20:34.971Z,74.50
2023-05-03T19:23:02.597Z,74.70
2023-05-03T19:25:32.751Z,75.44
2023-05-03T19:27:59.836Z,75.62
2023-05-03T19:30:27.076Z,75.45
2023-05-03T19:32:54.111Z,75.88
2023-05-03T19:35:21.687Z,76.84
2023-05-03T19:37:49.241Z,77.89
2023-05-03T19:40:16.546Z,78.78
2023-05-03T19:42:43.703Z,79.72
2023-05-03T19:45:11.627Z,80.61
2023-05-03T19:47:38.827Z,80.92
2023-05-03T19:50:06.891Z,80.71
2023-05-03T19:52:34.227Z,80.44
2023-05-03T19:55:02.642Z,80.64
2023-05-03T19:57:32.351Z,80.99
2023-05-03T19:59:59.470Z,81.41
2023-05-03T20:02:32.563Z,81.63
2023-05-03T20:05:01.669Z,82.25
2023-05-03T20:07:30.692Z,82.69
2023-05-03T20:10:02.371Z,83.12
2023-05-03T20:12:31.619Z,83.20
2023-05-03T20:14:58.857Z,83.27
2023-05-03T20:17:29.016Z,83.83
2023-05-03T20:19:56.136Z,84.99
2023-05-03T20:22:23.555Z,85.04
2023-05-03T20:24:53.812Z,85.17
2023-05-03T20:27:21.260Z,85.27
2023-05-03T20:29:48.320Z,85.39
2023-05-03T20:32:15.656Z,85.25
2023-05-03T20:34:47.124Z,85.58
2023-05-03T20:37:14.209Z,85.67
2023-05-03T20:39:41.718Z,85.96
2023-05-03T20:42:08.800Z,86.00
2023-05-03T20:44:35.808Z,86.37
2023-05-03T20:47:03.040Z,86.87
2023-05-03T20:49:30.314Z,87.29
2023-05-03T20:52:00.398Z,87.35
2023-05-03T20:54:30.453Z,87.86
2023-05-03T20:56:58.394Z,88.13
2023-05-03T20:59:25.416Z,88.26
2023-05-03T21:01:55.040Z,88.13
2023-05-03T21:04:25.532Z,88.28
2023-05-03T21:06:52.538Z,88.40
2023-05-03T21:09:25.634Z,88.46
2023-05-03T21:12:11.088Z,87.82
2023-05-03T21:14:38.521Z,87.46
2023-05-03T21:17:06.662Z,87.57
2023-05-03T21:19:33.782Z,87.25
2023-05-03T21:22:01.260Z,86.25
2023-05-03T21:24:29.298Z,84.99
2023-05-03T21:27:33.646Z,83.91
2023-05-03T21:30:03.450Z,83.50
2023-05-03T21:32:49.968Z,83.33
2023-05-03T21:35:35.960Z,82.92
2023-05-03T21:38:21.994Z,82.23
2023-05-03T21:40:49.416Z,81.82
2023-05-03T21:43:35.555Z,80.20
2023-05-03T21:46:06.889Z,79.42
2023-05-03T21:48:34.901Z,78.90
2023-05-03T21:51:20.366Z,77.92
2023-05-03T21:54:08.707Z,75.79
2023-05-03T21:56:36.143Z,75.29
2023-05-03T21:59:03.222Z,75.11
2023-05-03T22:01:30.251Z,74.84
2023-05-03T22:04:15.876Z,75.21
2023-05-03T22:06:44.070Z,75.23
2023-05-03T22:09:13.744Z,75.58
2023-05-03T22:12:00.604Z,76.20
2023-05-03T22:14:49.966Z,76.87
2023-05-03T22:17:16.969Z,77.23
2023-05-03T22:19:44.080Z,78.31
2023-05-03T22:22:11.592Z,79.20
2023-05-03T22:25:02.467Z,79.81
2023-05-03T22:27:54.748Z,80.65
2023-05-03T22:30:22.311Z,81.21
2023-05-03T22:32:49.694Z,81.88
2023-05-03T22:35:35.577Z,82.85
2023-05-03T22:38:42.017Z,84.23
2023-05-03T22:41:28.505Z,85.33
2023-05-03T22:43:55.555Z,85.81
2023-05-03T22:46:41.604Z,86.54
2023-05-03T22:49:08.971Z,87.29
2023-05-03T22:52:13.415Z,87.83
2023-05-03T22:54:40.556Z,88.39
2023-05-03T22:57:07.734Z,88.48
2023-05-03T22:59:35.122Z,88.73
2023-05-03T23:02:02.240Z,89.39
2023-05-03T23:04:29.211Z,89.61
2023-05-03T23:06:58.922Z,90.07
2023-05-03T23:09:28.978Z,90.34
2023-05-03T23:11:56.811Z,90.59
2023-05-03T23:14:42.401Z,90.53
2023-05-03T23:17:28.672Z,90.61
2023-05-03T23:19:55.790Z,91.11
2023-05-03T23:22:24.698Z,91.05
2023-05-03T23:24:55.963Z,91.39
2023-05-03T23:27:24.838Z,91.68
2023-05-03T23:29:52.564Z,91.84
2023-05-03T23:32:22.964Z,92.18
2023-05-03T23:34:50.549Z,92.58
2023-05-03T23:37:17.552Z,93.04
2023-05-03T23:39:45.257Z,93.24
2023-05-03T23:42:30.979Z,93.38
2023-05-03T23:44:58.102Z,93.65
2023-05-03T23:47:25.407Z,93.75
2023-05-03T23:50:11.323Z,94.09
2023-05-03T23:53:01.456Z,94.38
2023-05-03T23:55:28.493Z,94.62
2023-05-03T23:57:55.565Z,94.87
